Time;durP1;ratioP1;P1;durP2;ratioP2;P2;SDS_P1;SDS_P2;PMS_P1;PMS_P2;Temp;Humidity;BMP_temperature;BMP_pressure;BME280_temperature;BME280_humidity;BME280_pressure;Samples;Min_cycle;Max_cycle;Signal;HPM_P1;HPM_P2
2024/04/24 00:01:45;;;;;;;13.18;4.22;;;5.20;99.90;;;;;;5441252;26;20338;-72
2024/04/24 00:04:32;;;;;;;5.90;4.88;;;4.90;99.90;;;;;;5440181;26;20286;-72
2024/04/24 00:07:22;;;;;;;5.93;4.90;;;5.00;99.90;;;;;;5439862;26;21012;-73
2024/04/24 00:10:10;;;;;;;7.18;5.15;;;4.80;99.90;;;;;;5436901;26;20352;-74
2024/04/24 00:12:57;;;;;;;5.07;4.55;;;4.80;99.90;;;;;;5439726;26;20278;-73
2024/04/24 00:15:45;;;;;;;7.25;5.95;;;4.70;99.90;;;;;;5443198;26;20278;-72
2024/04/24 00:18:32;;;;;;;8.43;6.13;;;4.60;99.90;;;;;;5448553;26;20343;-72
2024/04/24 00:21:19;;;;;;;8.05;4.88;;;4.50;99.90;;;;;;5440146;26;20274;-72
2024/04/24 00:24:14;;;;;;;6.38;4.95;;;4.40;99.90;;;;;;5443528;26;20344;-73
2024/04/24 00:27:01;;;;;;;13.40;4.88;;;4.20;99.90;;;;;;5443752;26;20343;-72
2024/04/24 00:29:49;;;;;;;5.65;5.00;;;4.30;99.90;;;;;;5436562;26;20331;-74
2024/04/24 00:32:38;;;;;;;6.43;4.60;;;4.30;99.90;;;;;;5453111;26;20333;-73
2024/04/24 00:35:25;;;;;;;8.63;5.40;;;4.30;99.90;;;;;;5482125;26;20305;-72
2024/04/24 00:38:12;;;;;;;5.65;4.55;;;4.20;99.90;;;;;;5489853;26;20580;-72
2024/04/24 00:41:02;;;;;;;5.85;4.32;;;4.40;99.90;;;;;;5492493;26;20627;-72
2024/04/24 00:43:49;;;;;;;5.10;4.45;;;4.50;99.90;;;;;;5478508;26;20263;-74
2024/04/24 00:46:38;;;;;;;6.07;4.75;;;4.30;99.90;;;;;;5487491;26;20322;-73
2024/04/24 00:49:28;;;;;;;6.13;4.50;;;4.30;99.90;;;;;;5495279;26;20363;-72
2024/04/24 00:52:15;;;;;;;7.68;5.20;;;4.10;99.90;;;;;;5508853;26;20270;-72
2024/04/24 00:55:03;;;;;;;8.07;5.20;;;4.20;99.90;;;;;;5499765;26;20268;-72
2024/04/24 00:57:53;;;;;;;8.40;4.50;;;4.10;99.90;;;;;;5499637;26;20272;-72
2024/04/24 01:00:41;;;;;;;6.60;4.15;;;4.10;99.90;;;;;;5488910;26;20341;-72
2024/04/24 01:03:29;;;;;;;5.22;4.22;;;4.10;99.90;;;;;;5490738;26;20345;-72
2024/04/24 01:06:16;;;;;;;5.45;4.70;;;4.00;99.90;;;;;;5493912;26;20260;-73
2024/04/24 01:09:04;;;;;;;7.82;4.57;;;4.00;99.90;;;;;;5481853;26;20735;-72
2024/04/24 01:11:51;;;;;;;6.00;4.20;;;3.90;99.90;;;;;;5482997;26;20283;-72
2024/04/24 01:14:41;;;;;;;11.35;6.00;;;3.70;99.90;;;;;;5486816;26;20282;-72
2024/04/24 01:17:29;;;;;;;9.00;5.43;;;3.60;99.90;;;;;;5497716;26;20278;-72
2024/04/24 01:20:19;;;;;;;7.53;4.80;;;3.30;99.90;;;;;;5498466;26;20273;-72
2024/04/24 01:23:26;;;;;;;5.80;4.80;;;3.20;99.90;;;;;;5499473;26;20273;-73
2024/04/24 01:26:21;;;;;;;8.57;5.07;;;3.20;99.90;;;;;;5496530;26;20666;-72
2024/04/24 01:29:12;;;;;;;6.25;4.93;;;3.30;99.90;;;;;;5475475;26;20260;-72
2024/04/24 01:31:59;;;;;;;7.75;5.47;;;3.50;99.90;;;;;;5494408;26;20275;-73
2024/04/24 01:34:46;;;;;;;6.55;5.35;;;3.50;99.90;;;;;;5487305;26;20283;-72
2024/04/24 01:37:33;;;;;;;6.55;4.88;;;3.40;99.90;;;;;;5490416;26;20330;-73
2024/04/24 01:40:21;;;;;;;7.22;5.53;;;3.40;99.90;;;;;;5501200;26;20762;-72
2024/04/24 01:43:08;;;;;;;6.55;5.13;;;3.30;99.90;;;;;;5495618;26;20354;-73
2024/04/24 01:45:58;;;;;;;5.90;4.55;;;3.40;99.90;;;;;;5495135;26;20397;-73
2024/04/24 01:48:45;;;;;;;8.00;4.78;;;3.50;99.90;;;;;;5490431;26;20327;-73
2024/04/24 01:51:32;;;;;;;6.63;5.60;;;3.60;99.90;;;;;;5496757;26;20263;-72
2024/04/24 01:54:20;;;;;;;6.70;5.30;;;3.80;99.90;;;;;;5491646;26;20270;-73
2024/04/24 01:57:07;;;;;;;9.55;5.63;;;3.90;99.90;;;;;;5491088;26;20580;-72
2024/04/24 01:59:54;;;;;;;7.85;5.70;;;4.10;99.90;;;;;;5493035;26;20363;-73
2024/04/24 02:02:44;;;;;;;9.18;6.88;;;4.20;99.90;;;;;;5503083;26;20268;-73
2024/04/24 02:05:31;;;;;;;9.07;5.32;;;4.30;99.90;;;;;;5503182;26;20312;-73
2024/04/24 02:08:19;;;;;;;10.23;6.40;;;4.30;99.90;;;;;;5493303;26;20758;-73
2024/04/24 02:11:06;;;;;;;8.10;5.53;;;4.20;99.90;;;;;;5483221;26;20280;-73
2024/04/24 02:13:53;;;;;;;7.95;7.05;;;4.00;99.90;;;;;;5493966;26;20559;-73
2024/04/24 02:16:40;;;;;;;7.57;5.85;;;4.10;99.90;;;;;;5495582;26;20335;-73
2024/04/24 02:19:31;;;;;;;7.55;6.20;;;4.10;99.90;;;;;;5487570;26;20263;-73
2024/04/24 02:22:18;;;;;;;8.10;6.20;;;4.20;99.90;;;;;;5488125;26;20937;-73
2024/04/24 02:28:10;;;;;;;7.50;5.95;;;4.40;99.90;;;;;;5502277;26;20341;-73
2024/04/24 02:30:57;;;;;;;6.75;5.15;;;4.60;99.90;;;;;;5495946;26;20619;-73
2024/04/24 02:33:44;;;;;;;8.40;6.37;;;4.70;99.90;;;;;;5490808;26;20264;-73
2024/04/24 02:36:34;;;;;;;6.80;5.70;;;4.70;99.90;;;;;;5497267;26;20514;-73
2024/04/24 02:39:22;;;;;;;8.07;6.20;;;4.50;99.90;;;;;;5499157;26;20273;-73
2024/04/24 02:42:09;;;;;;;7.60;5.50;;;4.30;99.90;;;;;;5495653;26;20525;-73
2024/04/24 02:44:56;;;;;;;12.43;6.93;;;4.30;99.90;;;;;;5505632;26;20267;-71
2024/04/24 02:47:44;;;;;;;9.18;6.85;;;4.10;99.90;;;;;;5501286;26;20267;-71
2024/04/24 02:50:31;;;;;;;8.80;5.75;;;4.10;99.90;;;;;;5505889;26;20610;-71
2024/04/24 02:53:21;;;;;;;8.20;5.70;;;4.20;99.90;;;;;;5492988;26;20277;-73
2024/04/24 02:56:08;;;;;;;8.48;6.45;;;4.30;99.90;;;;;;5503329;25;20518;-73
2024/04/24 02:58:56;;;;;;;7.83;6.30;;;4.30;99.90;;;;;;5490090;26;20280;-73
2024/04/24 03:01:43;;;;;;;10.50;5.97;;;4.30;99.90;;;;;;5487634;26;20502;-73
2024/04/24 03:04:30;;;;;;;7.88;6.15;;;4.30;99.90;;;;;;5493184;26;20271;-73
2024/04/24 03:07:17;;;;;;;9.57;5.95;;;4.40;99.90;;;;;;5490924;26;20341;-72
2024/04/24 03:10:08;;;;;;;8.80;6.80;;;4.50;99.90;;;;;;5481117;26;20293;-73
2024/04/24 03:12:55;;;;;;;8.77;6.70;;;4.40;99.90;;;;;;5496932;26;20276;-73
2024/04/24 03:15:43;;;;;;;6.85;6.15;;;4.30;99.90;;;;;;5470351;26;20921;-73
2024/04/24 03:18:30;;;;;;;7.95;6.75;;;4.30;99.90;;;;;;5505475;26;20271;-73
2024/04/24 03:21:22;;;;;;;7.80;6.95;;;3.90;99.90;;;;;;5502651;26;20335;-73
2024/04/24 03:24:10;;;;;;;9.07;6.70;;;3.90;99.90;;;;;;5505934;26;20754;-73
2024/04/24 03:26:59;;;;;;;9.25;6.93;;;3.90;99.90;;;;;;5503956;26;20335;-73
2024/04/24 03:29:46;;;;;;;8.02;6.70;;;3.90;99.90;;;;;;5516774;26;20781;-73
2024/04/24 03:32:34;;;;;;;8.13;6.43;;;4.00;99.90;;;;;;5500778;26;20281;-73
2024/04/24 03:35:21;;;;;;;8.17;6.73;;;4.10;99.90;;;;;;5479941;26;20627;-73
2024/04/24 03:38:08;;;;;;;8.50;6.43;;;4.20;99.90;;;;;;5486148;26;20925;-73
2024/04/24 03:40:56;;;;;;;8.37;7.10;;;4.20;99.90;;;;;;5487121;26;20275;-73
2024/04/24 03:43:46;;;;;;;8.07;6.15;;;4.30;99.90;;;;;;5486946;26;20552;-73
2024/04/24 03:46:34;;;;;;;7.80;6.75;;;4.40;99.90;;;;;;5490507;26;20320;-73
2024/04/24 03:49:21;;;;;;;7.75;6.47;;;4.40;99.90;;;;;;5501196;26;20313;-73
2024/04/24 03:52:08;;;;;;;10.10;7.60;;;4.40;99.90;;;;;;5486877;26;20324;-73
2024/04/24 03:54:55;;;;;;;8.68;7.72;;;4.50;99.90;;;;;;5501164;26;20335;-73
2024/04/24 03:57:43;;;;;;;9.07;7.10;;;4.50;99.90;;;;;;5493156;26;20336;-73
2024/04/24 04:00:33;;;;;;;9.27;7.38;;;4.50;99.90;;;;;;5496366;26;20506;-73
2024/04/24 04:03:20;;;;;;;8.50;6.72;;;4.60;99.90;;;;;;5486936;26;20268;-73
2024/04/24 04:06:07;;;;;;;10.65;7.00;;;4.50;99.90;;;;;;5503354;26;20708;-73
2024/04/24 04:08:55;;;;;;;9.55;7.45;;;4.50;99.90;;;;;;5500515;26;20766;-73
2024/04/24 04:11:42;;;;;;;14.32;7.50;;;4.50;99.90;;;;;;5488865;26;20270;-73
2024/04/24 04:14:30;;;;;;;8.05;6.78;;;4.60;99.90;;;;;;5495640;26;20815;-73
2024/04/24 04:17:20;;;;;;;10.20;7.82;;;4.50;99.90;;;;;;5481613;26;20274;-73
2024/04/24 04:20:07;;;;;;;11.07;7.53;;;4.50;99.90;;;;;;5491115;26;20271;-72
2024/04/24 04:23:00;;;;;;;7.95;7.15;;;4.50;99.90;;;;;;5491242;26;20774;-73
2024/04/24 04:25:47;;;;;;;12.52;7.72;;;4.60;99.90;;;;;;5490817;25;20317;-73
2024/04/24 04:28:35;;;;;;;12.73;7.78;;;4.70;99.90;;;;;;5485193;26;20275;-73
2024/04/24 04:31:22;;;;;;;8.30;7.10;;;4.70;99.90;;;;;;5493536;26;20267;-73
2024/04/24 04:34:12;;;;;;;11.02;8.30;;;4.70;99.90;;;;;;5503233;26;20281;-73
2024/04/24 04:36:59;;;;;;;17.77;11.05;;;4.60;99.90;;;;;;5489167;26;20284;-74
2024/04/24 04:39:46;;;;;;;15.73;11.98;;;4.60;99.90;;;;;;5493899;26;20468;-73
2024/04/24 04:42:33;;;;;;;13.23;9.90;;;4.70;99.90;;;;;;5480306;26;20617;-74
2024/04/24 04:45:20;;;;;;;15.05;11.52;;;4.80;99.90;;;;;;5480875;25;20818;-74
2024/04/24 04:48:08;;;;;;;21.23;13.02;;;4.90;99.90;;;;;;5489482;26;20271;-74
2024/04/24 04:50:59;;;;;;;11.98;10.30;;;5.00;99.90;;;;;;5483601;26;20281;-74
2024/04/24 04:53:46;;;;;;;12.07;10.40;;;5.00;99.90;;;;;;5486171;26;22848;-74
2024/04/24 04:56:33;;;;;;;12.90;10.75;;;5.00;99.90;;;;;;5495857;26;20336;-74
2024/04/24 04:59:21;;;;;;;17.00;12.50;;;5.00;99.90;;;;;;5482894;26;20286;-74
2024/04/24 05:02:08;;;;;;;17.20;12.50;;;5.20;99.90;;;;;;5490917;26;20912;-74
2024/04/24 05:04:55;;;;;;;25.77;12.63;;;5.30;99.90;;;;;;5493484;26;20506;-74
2024/04/24 05:07:45;;;;;;;17.43;12.50;;;5.30;99.90;;;;;;5496895;26;20767;-74
2024/04/24 05:10:32;;;;;;;17.92;14.90;;;5.30;99.90;;;;;;5492030;26;20566;-73
2024/04/24 05:13:19;;;;;;;33.20;26.90;;;5.20;99.90;;;;;;5482348;26;20288;-74
2024/04/24 05:16:11;;;;;;;22.10;16.50;;;5.20;99.90;;;;;;5484820;26;20574;-74
2024/04/24 05:18:58;;;;;;;21.42;16.20;;;5.30;99.90;;;;;;5484905;26;20586;-74
2024/04/24 05:21:46;;;;;;;18.92;15.65;;;5.30;99.90;;;;;;5489729;26;20853;-74
2024/04/24 05:24:36;;;;;;;18.70;16.10;;;5.40;99.90;;;;;;5481049;26;20272;-74
2024/04/24 05:30:26;;;;;;;17.77;15.07;;;5.50;99.90;;;;;;5483493;26;20288;-74
2024/04/24 05:33:13;;;;;;;19.40;15.97;;;5.50;99.90;;;;;;5493613;26;20566;-74
2024/04/24 05:36:01;;;;;;;16.73;14.97;;;5.40;99.90;;;;;;5486857;26;20510;-74
2024/04/24 05:38:49;;;;;;;16.58;14.07;;;5.40;99.90;;;;;;5482610;26;20515;-74
2024/04/24 05:41:39;;;;;;;19.45;16.60;;;5.60;99.90;;;;;;5486530;26;20795;-74
2024/04/24 05:44:27;;;;;;;22.90;17.50;;;5.60;99.90;;;;;;5495062;26;20286;-74
2024/04/24 05:47:15;;;;;;;32.78;22.20;;;5.60;99.90;;;;;;5482922;26;20539;-74
2024/04/24 05:50:02;;;;;;;56.53;29.13;;;5.70;99.90;;;;;;5493788;26;20277;-73
2024/04/24 05:52:49;;;;;;;36.60;22.42;;;5.70;99.90;;;;;;5496560;26;20547;-74
2024/04/24 05:55:36;;;;;;;41.38;24.65;;;5.70;99.90;;;;;;5482725;25;20285;-74
2024/04/24 05:58:27;;;;;;;31.13;20.00;;;5.70;99.90;;;;;;5482461;26;20274;-74
2024/04/24 06:01:14;;;;;;;37.28;22.92;;;5.60;99.90;;;;;;5496509;26;20572;-74
2024/04/24 06:04:01;;;;;;;46.35;29.75;;;5.50;99.90;;;;;;5487668;26;20340;-74
2024/04/24 06:06:48;;;;;;;23.90;17.70;;;5.50;99.90;;;;;;5486845;25;20266;-74
2024/04/24 06:09:36;;;;;;;22.60;18.05;;;5.40;99.90;;;;;;5476366;26;20799;-74
2024/04/24 06:12:23;;;;;;;19.80;17.17;;;5.50;99.90;;;;;;5494004;26;20264;-74
2024/04/24 06:15:13;;;;;;;18.38;15.57;;;5.60;99.90;;;;;;5488477;26;20293;-74
2024/04/24 06:18:01;;;;;;;22.27;17.80;;;5.80;99.90;;;;;;5483838;26;20274;-74
2024/04/24 06:20:48;;;;;;;19.30;16.53;;;5.90;99.90;;;;;;5482384;26;20549;-74
2024/04/24 06:23:35;;;;;;;21.30;17.93;;;5.80;99.90;;;;;;5490477;26;21098;-74
2024/04/24 06:26:22;;;;;;;21.37;17.43;;;5.80;99.90;;;;;;5484615;25;20576;-74
2024/04/24 06:29:10;;;;;;;26.10;19.13;;;5.80;99.90;;;;;;5472381;26;20567;-74
2024/04/24 06:32:00;;;;;;;21.63;17.97;;;5.90;99.90;;;;;;5479090;26;20262;-74
2024/04/24 06:34:47;;;;;;;22.90;17.73;;;5.90;99.90;;;;;;5480510;26;21082;-74
2024/04/24 06:37:34;;;;;;;22.73;17.10;;;5.80;99.90;;;;;;5485865;26;21117;-74
2024/04/24 06:40:22;;;;;;;26.43;19.30;;;5.60;99.90;;;;;;5486393;26;22841;-73
2024/04/24 06:43:10;;;;;;;26.73;18.30;;;5.50;99.90;;;;;;5487409;26;20508;-73
2024/04/24 06:45:57;;;;;;;25.00;20.50;;;5.40;99.90;;;;;;5476251;26;20886;-74
2024/04/24 06:48:47;;;;;;;27.10;20.57;;;5.40;99.90;;;;;;5479054;26;20734;-74
2024/04/24 06:51:35;;;;;;;27.48;21.45;;;5.40;99.90;;;;;;5476859;26;20520;-73
2024/04/24 06:54:22;;;;;;;25.67;19.17;;;5.50;99.90;;;;;;5487268;26;20307;-73
2024/04/24 06:57:09;;;;;;;29.57;21.70;;;5.50;99.90;;;;;;5484603;26;20583;-74
2024/04/24 06:59:58;;;;;;;35.93;24.67;;;5.60;99.90;;;;;;5488900;26;20571;-74
2024/04/24 07:02:45;;;;;;;24.10;19.53;;;5.60;99.90;;;;;;5488770;26;21061;-74
2024/04/24 07:05:35;;;;;;;28.17;21.60;;;5.70;99.90;;;;;;5490535;26;20842;-74
2024/04/24 07:08:22;;;;;;;29.38;20.75;;;5.80;99.90;;;;;;5485570;26;20336;-74
2024/04/24 07:11:10;;;;;;;37.25;23.83;;;6.00;99.90;;;;;;5481564;26;20337;-74
2024/04/24 07:13:57;;;;;;;23.93;19.30;;;6.20;99.90;;;;;;5477733;26;20279;-74
2024/04/24 07:16:44;;;;;;;20.40;17.27;;;6.30;99.90;;;;;;5476134;25;20567;-73
2024/04/24 07:19:31;;;;;;;24.07;19.03;;;6.40;99.90;;;;;;5479349;26;20514;-73
2024/04/24 07:22:21;;;;;;;25.13;16.87;;;6.50;99.90;;;;;;5486226;26;21060;-73
2024/04/24 07:25:09;;;;;;;21.97;16.57;;;6.40;99.90;;;;;;5499025;26;21057;-73
2024/04/24 07:27:56;;;;;;;20.43;16.93;;;6.30;99.90;;;;;;5494134;26;20870;-74
2024/04/24 07:30:43;;;;;;;18.27;15.60;;;6.20;99.90;;;;;;5488504;26;20505;-74
2024/04/24 07:33:30;;;;;;;20.45;17.40;;;6.20;99.90;;;;;;5489477;26;20285;-73
2024/04/24 07:36:18;;;;;;;23.45;17.60;;;5.90;99.90;;;;;;5480371;26;20325;-74
2024/04/24 07:39:08;;;;;;;19.27;15.20;;;5.80;99.90;;;;;;5479317;26;20268;-74
2024/04/24 07:41:55;;;;;;;27.47;17.67;;;5.80;99.90;;;;;;5488308;26;21427;-73
2024/04/24 07:44:43;;;;;;;23.50;17.50;;;5.80;99.90;;;;;;5490276;26;20524;-73
2024/04/24 07:47:30;;;;;;;26.03;17.60;;;5.80;99.90;;;;;;5488556;26;20540;-73
2024/04/24 07:50:17;;;;;;;19.17;14.87;;;5.90;99.90;;;;;;5478169;26;21142;-74
2024/04/24 07:53:04;;;;;;;22.35;16.23;;;6.00;99.90;;;;;;5484121;26;20530;-74
2024/04/24 07:55:54;;;;;;;19.80;15.63;;;6.00;99.90;;;;;;5494853;25;20312;-74
2024/04/24 07:58:41;;;;;;;18.87;15.43;;;6.20;99.90;;;;;;5489771;26;20509;-74
2024/04/24 08:01:29;;;;;;;17.95;14.00;;;6.30;99.90;;;;;;5494382;26;20504;-73
2024/04/24 08:04:16;;;;;;;21.03;14.07;;;6.40;99.90;;;;;;5494846;26;20386;-73
2024/04/24 08:07:03;;;;;;;22.10;16.13;;;6.30;99.90;;;;;;5491407;26;20509;-73
2024/04/24 08:09:50;;;;;;;20.63;14.43;;;6.40;99.90;;;;;;5490535;26;20626;-73
2024/04/24 08:12:40;;;;;;;22.27;16.10;;;6.50;99.90;;;;;;5484575;26;20500;-73
2024/04/24 08:15:27;;;;;;;20.67;15.50;;;6.60;99.90;;;;;;5488939;25;20579;-73
2024/04/24 08:18:15;;;;;;;21.20;16.40;;;6.60;99.90;;;;;;5490340;26;21090;-74
2024/04/24 08:21:02;;;;;;;17.43;14.20;;;6.70;99.90;;;;;;5490015;26;20907;-73
2024/04/24 08:23:49;;;;;;;18.37;16.10;;;6.80;99.90;;;;;;5482599;26;22092;-73
2024/04/24 08:26:36;;;;;;;25.20;17.00;;;7.00;99.90;;;;;;5490731;26;20512;-73
2024/04/24 08:29:28;;;;;;;25.17;17.83;;;7.00;99.90;;;;;;5487773;26;20557;-74
2024/04/24 08:32:16;;;;;;;18.47;15.53;;;7.10;99.90;;;;;;5484767;26;21131;-73
2024/04/24 08:35:03;;;;;;;18.37;14.83;;;7.20;99.90;;;;;;5489747;26;20522;-73
2024/04/24 08:37:50;;;;;;;22.97;16.60;;;7.10;99.90;;;;;;5491272;26;20851;-73
2024/04/24 08:40:38;;;;;;;16.83;15.03;;;7.10;99.90;;;;;;5479088;26;20610;-73
2024/04/24 08:43:25;;;;;;;19.40;15.77;;;6.90;99.90;;;;;;5485298;26;20502;-73
2024/04/24 08:46:15;;;;;;;19.80;15.32;;;6.80;99.90;;;;;;5496419;26;20571;-73
2024/04/24 08:49:05;;;;;;;16.47;14.20;;;6.90;99.90;;;;;;5475458;26;20270;-73
2024/04/24 08:51:54;;;;;;;17.80;14.50;;;7.00;99.90;;;;;;5487118;26;21095;-73
2024/04/24 08:54:43;;;;;;;17.67;14.57;;;7.10;99.90;;;;;;5503398;26;21103;-73
2024/04/24 08:57:32;;;;;;;16.87;14.67;;;7.10;99.90;;;;;;5491049;26;20571;-73
2024/04/24 09:00:23;;;;;;;16.40;13.87;;;7.20;99.90;;;;;;5482763;26;21069;-74
2024/04/24 09:03:24;;;;;;;17.87;14.67;;;7.20;99.90;;;;;;5483952;26;20512;-74
2024/04/24 09:06:12;;;;;;;19.20;15.53;;;7.30;99.90;;;;;;5473944;26;20581;-73
2024/04/24 09:09:00;;;;;;;16.23;14.07;;;7.20;99.90;;;;;;5491187;26;20527;-73
2024/04/24 09:11:50;;;;;;;20.40;17.17;;;7.30;99.90;;;;;;5487204;26;20572;-73
2024/04/24 09:14:37;;;;;;;20.30;15.97;;;7.50;99.90;;;;;;5482955;26;20508;-73
2024/04/24 09:17:24;;;;;;;23.30;17.40;;;7.50;99.90;;;;;;5483685;26;20577;-73
2024/04/24 09:20:16;;;;;;;18.83;16.57;;;7.60;99.90;;;;;;5484230;26;21070;-73
2024/04/24 09:23:08;;;;;;;16.70;13.93;;;7.70;99.90;;;;;;5489835;26;21026;-73
2024/04/24 09:25:57;;;;;;;21.33;17.80;;;7.80;99.90;;;;;;5483518;25;20739;-73
2024/04/24 09:28:45;;;;;;;20.30;17.70;;;8.10;99.90;;;;;;5484765;26;20549;-73
2024/04/24 09:31:34;;;;;;;20.60;16.27;;;8.30;99.90;;;;;;5476143;26;20537;-73
2024/04/24 09:34:22;;;;;;;18.67;15.13;;;8.40;99.90;;;;;;5484461;26;20512;-73
2024/04/24 09:37:11;;;;;;;15.63;13.93;;;8.30;99.90;;;;;;5481120;26;20575;-74
2024/04/24 09:39:59;;;;;;;19.20;15.00;;;8.10;99.90;;;;;;5472546;26;20516;-73
2024/04/24 09:42:48;;;;;;;16.03;14.33;;;8.00;99.90;;;;;;5466674;26;20513;-73
2024/04/24 09:45:35;;;;;;;17.50;15.70;;;8.00;99.90;;;;;;5479197;26;21059;-73
2024/04/24 09:48:22;;;;;;;15.43;13.33;;;7.70;99.90;;;;;;5477903;26;20509;-74
2024/04/24 09:51:10;;;;;;;20.80;15.47;;;7.70;99.90;;;;;;5476577;26;20511;-73
2024/04/24 09:54:00;;;;;;;19.47;15.30;;;7.70;99.90;;;;;;5479132;26;20545;-73
2024/04/24 09:56:47;;;;;;;16.27;14.03;;;7.60;99.90;;;;;;5480651;25;20509;-74
2024/04/24 09:59:36;;;;;;;17.97;16.07;;;7.40;99.90;;;;;;5474820;26;20515;-74
2024/04/24 10:02:27;;;;;;;18.07;16.13;;;7.20;99.90;;;;;;5479411;26;20588;-74
2024/04/24 10:05:19;;;;;;;18.20;16.27;;;7.20;99.90;;;;;;5477554;26;21175;-73
2024/04/24 10:08:08;;;;;;;21.93;17.37;;;7.30;99.90;;;;;;5478294;26;20583;-73
2024/04/24 10:11:00;;;;;;;6.93;5.70;;;7.30;99.90;;;;;;5479495;26;20942;-73
2024/04/24 10:13:51;;;;;;;4.87;4.07;;;6.90;99.90;;;;;;5474372;26;20507;-73
2024/04/24 10:16:41;;;;;;;6.20;3.67;;;6.50;99.90;;;;;;5476832;26;20572;-73
2024/04/24 10:19:30;;;;;;;4.77;3.70;;;6.00;99.90;;;;;;5479241;26;20590;-73
2024/04/24 10:22:19;;;;;;;5.67;2.93;;;5.70;99.90;;;;;;5483278;26;20545;-73
2024/04/24 10:25:07;;;;;;;12.33;2.87;;;5.60;99.90;;;;;;5479896;26;20922;-73
2024/04/24 10:27:58;;;;;;;4.90;2.90;;;5.50;99.90;;;;;;5480419;26;20554;-73
2024/04/24 10:30:48;;;;;;;3.40;2.40;;;5.50;99.90;;;;;;5475985;26;20554;-73
2024/04/24 10:33:36;;;;;;;4.83;2.20;;;5.60;99.90;;;;;;5485098;26;20495;-73
2024/04/24 10:36:24;;;;;;;3.80;2.05;;;5.70;99.90;;;;;;5487989;26;20569;-73
2024/04/24 10:39:13;;;;;;;3.23;2.10;;;5.80;99.90;;;;;;5493496;26;20267;-73
2024/04/24 10:42:01;;;;;;;2.33;1.90;;;5.60;99.90;;;;;;5480980;26;21107;-73
2024/04/24 10:44:51;;;;;;;3.30;1.90;;;5.60;99.90;;;;;;5479878;26;20265;-73
2024/04/24 10:47:39;;;;;;;3.23;2.00;;;5.60;99.90;;;;;;5494163;26;20568;-74
2024/04/24 10:50:28;;;;;;;3.60;1.67;;;5.70;99.90;;;;;;5488679;26;20508;-73
2024/04/24 10:53:16;;;;;;;2.00;1.57;;;5.90;99.90;;;;;;5483198;26;20324;-73
2024/04/24 10:56:03;;;;;;;2.97;1.53;;;6.10;99.90;;;;;;5486422;26;20831;-73
2024/04/24 10:58:54;;;;;;;7.87;2.23;;;6.10;99.90;;;;;;5481923;26;20504;-74
2024/04/24 11:01:45;;;;;;;3.60;2.40;;;6.30;99.90;;;;;;5482279;26;20504;-73
2024/04/24 11:04:33;;;;;;;5.27;2.70;;;6.30;99.90;;;;;;5491758;26;20509;-73
2024/04/24 11:07:20;;;;;;;8.67;3.60;;;6.50;99.90;;;;;;5489352;26;20551;-74
2024/04/24 11:10:09;;;;;;;2.73;2.30;;;6.70;99.90;;;;;;5492553;26;20498;-73
2024/04/24 11:12:57;;;;;;;4.27;2.83;;;6.60;99.90;;;;;;5484402;26;20509;-73
2024/04/24 11:15:44;;;;;;;4.15;2.67;;;6.70;99.90;;;;;;5492722;26;20511;-74
2024/04/24 11:18:36;;;;;;;5.47;2.93;;;6.80;99.90;;;;;;5501650;26;20841;-74
2024/04/24 11:21:24;;;;;;;3.07;2.63;;;6.80;99.90;;;;;;5485707;26;21054;-74
2024/04/24 11:24:11;;;;;;;4.77;2.60;;;7.00;99.90;;;;;;5483195;26;20512;-74
2024/04/24 11:26:59;;;;;;;5.30;3.50;;;7.20;99.90;;;;;;5485081;26;21605;-73
2024/04/24 11:29:46;;;;;;;4.13;2.70;;;7.40;99.90;;;;;;5489472;26;20488;-73
2024/04/24 11:32:34;;;;;;;6.03;3.37;;;7.60;99.90;;;;;;5482727;26;20499;-74
2024/04/24 11:35:26;;;;;;;4.93;2.80;;;7.90;99.90;;;;;;5489147;26;20568;-73
2024/04/24 11:38:13;;;;;;;4.80;4.00;;;8.10;99.90;;;;;;5489549;26;20566;-74
2024/04/24 11:41:01;;;;;;;5.77;3.33;;;8.60;99.90;;;;;;5487466;26;20866;-74
2024/04/24 11:43:48;;;;;;;3.73;2.70;;;8.90;99.90;;;;;;5484637;26;20853;-74
2024/04/24 11:46:36;;;;;;;4.73;3.20;;;9.30;99.90;;;;;;5490115;26;20891;-72
2024/04/24 11:49:24;;;;;;;3.93;3.50;;;9.60;99.90;;;;;;5495709;26;20510;-74
2024/04/24 11:52:14;;;;;;;5.00;3.20;;;9.50;99.90;;;;;;5483258;26;20516;-73
2024/04/24 11:55:04;;;;;;;4.77;2.90;;;9.40;99.90;;;;;;5473469;26;20594;-73
2024/04/24 11:57:51;;;;;;;4.33;2.97;;;9.20;99.90;;;;;;5500575;26;20911;-73
2024/04/24 12:00:40;;;;;;;5.93;3.40;;;9.30;99.90;;;;;;5491667;26;20497;-73
2024/04/24 12:03:28;;;;;;;4.80;3.37;;;9.50;99.90;;;;;;5499650;26;20513;-73
2024/04/24 12:06:15;;;;;;;3.50;3.07;;;9.70;99.90;;;;;;5495469;26;20513;-73
2024/04/24 12:09:07;;;;;;;5.53;3.60;;;9.40;99.90;;;;;;5490996;26;20578;-73
2024/04/24 12:11:54;;;;;;;6.13;3.90;;;9.40;99.90;;;;;;5478152;26;20561;-73
2024/04/24 12:14:42;;;;;;;5.00;3.00;;;9.40;99.90;;;;;;5491278;26;20545;-73
2024/04/24 12:17:29;;;;;;;6.43;4.07;;;9.60;99.90;;;;;;5509974;26;20549;-73
2024/04/24 12:20:16;;;;;;;6.90;4.10;;;9.80;99.90;;;;;;5494649;26;20570;-73
2024/04/24 12:23:03;;;;;;;5.30;4.13;;;9.90;99.90;;;;;;5495705;26;21109;-73
2024/04/24 12:25:53;;;;;;;8.10;4.30;;;10.10;99.90;;;;;;5502215;25;20561;-73
2024/04/24 12:28:40;;;;;;;5.03;3.87;;;10.00;99.90;;;;;;5485342;26;20604;-72
2024/04/24 12:31:28;;;;;;;7.30;4.10;;;10.30;99.90;;;;;;5494204;26;20538;-72
2024/04/24 12:34:18;;;;;;;6.87;4.57;;;10.50;99.90;;;;;;5495372;26;20574;-72
2024/04/24 12:37:05;;;;;;;5.10;3.87;;;10.50;99.50;;;;;;5495323;26;20568;-72
2024/04/24 12:39:52;;;;;;;4.30;3.50;;;10.50;96.70;;;;;;5496546;26;20595;-72
2024/04/24 12:42:42;;;;;;;4.23;3.30;;;10.50;94.00;;;;;;5488885;26;20889;-72
2024/04/24 12:45:34;;;;;;;4.30;3.37;;;10.40;86.80;;;;;;5493430;26;21096;-72
2024/04/24 12:48:21;;;;;;;6.67;3.30;;;10.20;86.20;;;;;;5495151;26;20497;-72
2024/04/24 12:51:09;;;;;;;3.67;2.93;;;10.30;91.00;;;;;;5482989;26;20563;-72
2024/04/24 12:53:57;;;;;;;5.70;3.33;;;10.80;93.70;;;;;;5493078;26;20569;-72
2024/04/24 12:56:44;;;;;;;3.90;3.17;;;11.00;89.40;;;;;;5491360;26;20552;-72
2024/04/24 12:59:34;;;;;;;3.87;2.90;;;11.50;90.80;;;;;;5501514;26;20500;-72
2024/04/24 13:02:21;;;;;;;3.20;2.57;;;11.80;73.50;;;;;;5494165;26;20502;-72
2024/04/24 13:05:10;;;;;;;5.80;3.40;;;11.60;74.70;;;;;;5489436;26;20505;-72
2024/04/24 13:07:57;;;;;;;7.50;3.60;;;11.60;78.10;;;;;;5494876;26;20505;-72
2024/04/24 13:10:45;;;;;;;4.17;3.50;;;11.10;76.10;;;;;;5490080;26;20497;-72
2024/04/24 13:13:32;;;;;;;4.00;3.00;;;10.50;76.20;;;;;;5495761;26;20501;-72
2024/04/24 13:16:22;;;;;;;4.20;3.03;;;10.20;84.90;;;;;;5485977;26;20567;-73
2024/04/24 13:19:10;;;;;;;6.07;4.07;;;9.90;87.70;;;;;;5481017;26;20599;-72
2024/04/24 13:21:58;;;;;;;6.87;3.50;;;9.60;89.30;;;;;;5491611;26;20654;-72
2024/04/24 13:24:47;;;;;;;4.17;2.83;;;9.30;91.60;;;;;;5494203;26;20524;-72
2024/04/24 13:27:34;;;;;;;9.10;4.30;;;9.10;91.30;;;;;;5484894;26;20568;-72
2024/04/24 13:30:21;;;;;;;3.93;2.23;;;9.30;94.90;;;;;;5496578;26;20892;-73
2024/04/24 13:33:11;;;;;;;3.30;1.80;;;9.60;88.40;;;;;;5490864;26;20537;-72
2024/04/24 13:35:58;;;;;;;4.00;1.60;;;10.30;90.00;;;;;;5495217;26;20623;-72
2024/04/24 13:38:47;;;;;;;6.13;1.90;;;10.90;79.70;;;;;;5487708;26;20566;-72
2024/04/24 13:41:34;;;;;;;3.50;1.70;;;11.20;68.20;;;;;;5500981;26;20922;-72
2024/04/24 13:44:22;;;;;;;5.00;1.67;;;11.70;67.80;;;;;;5501409;26;20519;-72
2024/04/24 13:47:11;;;;;;;3.37;2.13;;;12.10;59.80;;;;;;5491852;26;20510;-72
2024/04/24 13:50:01;;;;;;;8.80;1.77;;;11.40;66.60;;;;;;5512413;26;20903;-72
2024/04/24 13:52:48;;;;;;;3.17;1.50;;;10.80;62.80;;;;;;5504298;26;20573;-72
2024/04/24 13:55:36;;;;;;;6.07;1.50;;;10.20;66.10;;;;;;5493010;25;21108;-72
2024/04/24 13:58:23;;;;;;;3.50;1.50;;;10.00;73.90;;;;;;5492584;26;20556;-72
2024/04/24 14:01:11;;;;;;;2.33;1.20;;;10.10;80.40;;;;;;5502843;26;20571;-72
2024/04/24 14:03:58;;;;;;;2.77;1.17;;;10.60;77.90;;;;;;5512394;26;20515;-72
2024/04/24 14:06:48;;;;;;;3.00;1.10;;;11.20;74.10;;;;;;5505324;26;20539;-73
2024/04/24 14:09:35;;;;;;;2.23;1.00;;;11.20;67.40;;;;;;5485410;26;20496;-72
2024/04/24 14:12:22;;;;;;;3.83;1.00;;;11.00;56.90;;;;;;5497808;26;20832;-72
2024/04/24 14:15:10;;;;;;;1.70;1.13;;;10.70;41.70;;;;;;5487701;25;20559;-73
2024/04/24 14:17:57;;;;;;;2.37;0.93;;;11.00;41.20;;;;;;5499843;26;20509;-72
2024/04/24 14:20:45;;;;;;;2.50;1.00;;;11.40;41.40;;;;;;5487217;26;20501;-72
2024/04/24 14:23:34;;;;;;;2.67;1.10;;;11.70;36.30;;;;;;5489302;26;20565;-72
2024/04/24 14:26:22;;;;;;;1.63;0.90;;;11.90;33.90;;;;;;5487277;26;21138;-72
2024/04/24 14:29:12;;;;;;;4.13;1.10;;;12.50;34.40;;;;;;5498289;26;20514;-73
2024/04/24 14:32:00;;;;;;;1.90;1.00;;;12.80;27.20;;;;;;5491366;26;20510;-72
2024/04/24 14:34:48;;;;;;;1.60;0.70;;;13.10;20.70;;;;;;5500920;26;20505;-72
2024/04/24 14:37:36;;;;;;;2.83;1.10;;;12.70;20.40;;;;;;5502187;26;20494;-72
2024/04/24 14:40:26;;;;;;;1.63;0.80;;;12.40;20.20;;;;;;5494770;26;20501;-72
2024/04/24 14:43:14;;;;;;;2.00;0.97;;;12.30;24.00;;;;;;5481630;26;20566;-72